Birchwood Airport Birchwood US
ICAO: PABV
IATA:
Category: Medium
Scheduled Services:

Elevation: 83 ft
TransAlt. 18000 ft.

Airport Communications:
AWOS 3:135.55
ANCHORAGE CNTR:132.3
CTAF/UNICOM:123

PABV Zoom In..

If you have problems with the map follow the link
https://www.worldairports.se/pages/airport.php?
ICAO=PABV

Runways:

(A) RW 02L length 4010 ft width 100 ft
---- / hdg 14

(B) RW 02R length 2200 ft width 50 ft
---- / hdg 14

(C) RW 20L length 2200 ft width 50 ft
---- / hdg 194

(D) RW 20R length 4010 ft width 100 ft
---- / hdg 194

Location; PABV
Day. 12 / Time. 23.56 Zulu
* Altimeter: 29.24
* Temperature: -01° c. -30.2°f.
* Wind from: 180° Speed 03 kn.
Dewpoint: -02° c.
Visibility: 10 Statute Miles.
Clouds: Scattered 12000 ft.

PABV 122356Z AUTO 18003KT 10SM SCT120 M01/M02 A2924 RMK AO2 SLP907 T10061017 10000 21044 58008 FZRANO


Wind From 180°
Speed 03 kn.

 
 
jpsmedia worldairports.se 2019   terms of use